sensor_id;sensor_type;location;lat;lon;timestamp;pressure;altitude;pressure_sealevel;temperature;humidity
18323;BME280;9287;49.456;11.064;2023-02-23T00:01:37;97779.03;;;9.92;100.00
18323;BME280;9287;49.456;11.064;2023-02-23T00:04:06;97775.28;;;9.81;100.00
18323;BME280;9287;49.456;11.064;2023-02-23T00:06:35;97773.84;;;9.71;100.00
18323;BME280;9287;49.456;11.064;2023-02-23T00:09:04;97772.91;;;9.63;100.00
18323;BME280;9287;49.456;11.064;2023-02-23T00:11:39;97765.84;;;9.62;100.00
18323;BME280;9287;49.456;11.064;2023-02-23T00:14:06;97778.16;;;9.56;100.00
18323;BME280;9287;49.456;11.064;2023-02-23T00:16:34;97775.59;;;9.48;100.00
18323;BME280;9287;49.456;11.064;2023-02-23T00:19:03;97774.28;;;9.57;100.00
18323;BME280;9287;49.456;11.064;2023-02-23T00:21:33;97771.91;;;9.56;100.00
18323;BME280;9287;49.456;11.064;2023-02-23T00:24:03;97771.31;;;9.62;100.00
18323;BME280;9287;49.456;11.064;2023-02-23T00:26:32;97773.78;;;9.67;100.00
18323;BME280;9287;49.456;11.064;2023-02-23T00:29:04;97765.16;;;9.65;100.00
18323;BME280;9287;49.456;11.064;2023-02-23T00:31:32;97763.72;;;9.71;100.00
18323;BME280;9287;49.456;11.064;2023-02-23T00:34:01;97759.88;;;9.72;100.00
18323;BME280;9287;49.456;11.064;2023-02-23T00:36:32;97766.91;;;9.73;100.00
18323;BME280;9287;49.456;11.064;2023-02-23T00:39:02;97761.44;;;9.73;100.00
18323;BME280;9287;49.456;11.064;2023-02-23T00:41:36;97764.63;;;9.75;100.00
18323;BME280;9287;49.456;11.064;2023-02-23T00:44:05;97762.16;;;9.70;100.00
18323;BME280;9287;49.456;11.064;2023-02-23T00:46:32;97762.16;;;9.70;100.00
18323;BME280;9287;49.456;11.064;2023-02-23T00:49:00;97762.16;;;9.70;100.00
18323;BME280;9287;49.456;11.064;2023-02-23T00:51:30;97760.16;;;9.67;100.00
18323;BME280;9287;49.456;11.064;2023-02-23T00:53:59;97772.19;;;9.66;100.00
18323;BME280;9287;49.456;11.064;2023-02-23T00:56:26;97766.06;;;9.69;100.00
18323;BME280;9287;49.456;11.064;2023-02-23T00:58:55;97769.63;;;9.73;100.00
18323;BME280;9287;49.456;11.064;2023-02-23T01:01:24;97773.88;;;9.87;100.00
18323;BME280;9287;49.456;11.064;2023-02-23T01:03:52;97779.16;;;9.80;100.00
18323;BME280;9287;49.456;11.064;2023-02-23T01:06:20;97775.28;;;9.81;100.00
18323;BME280;9287;49.456;11.064;2023-02-23T01:08:49;97763.03;;;9.74;100.00
18323;BME280;9287;49.456;11.064;2023-02-23T01:11:18;97772.56;;;9.81;100.00
18323;BME280;9287;49.456;11.064;2023-02-23T01:13:48;97773.16;;;9.74;100.00
18323;BME280;9287;49.456;11.064;2023-02-23T01:16:19;97768.34;;;9.67;100.00
18323;BME280;9287;49.456;11.064;2023-02-23T01:18:49;97773.00;;;9.67;100.00
18323;BME280;9287;49.456;11.064;2023-02-23T01:21:19;97768.13;;;9.60;100.00
18323;BME280;9287;49.456;11.064;2023-02-23T01:23:47;97769.88;;;9.53;100.00
18323;BME280;9287;49.456;11.064;2023-02-23T01:26:16;97777.00;;;9.57;100.00
18323;BME280;9287;49.456;11.064;2023-02-23T01:28:47;97776.56;;;9.55;100.00
18323;BME280;9287;49.456;11.064;2023-02-23T01:31:15;97775.72;;;9.51;100.00
18323;BME280;9287;49.456;11.064;2023-02-23T01:33:44;97772.16;;;9.35;100.00
18323;BME280;9287;49.456;11.064;2023-02-23T01:36:13;97772.34;;;9.42;100.00
18323;BME280;9287;49.456;11.064;2023-02-23T01:38:41;97770.59;;;9.34;100.00
18323;BME280;9287;49.456;11.064;2023-02-23T01:41:09;97772.16;;;9.35;100.00
18323;BME280;9287;49.456;11.064;2023-02-23T01:43:55;97764.84;;;9.23;100.00
18323;BME280;9287;49.456;11.064;2023-02-23T01:46:22;97767.91;;;9.22;100.00
18323;BME280;9287;49.456;11.064;2023-02-23T01:48:51;97763.06;;;9.15;100.00
18323;BME280;9287;49.456;11.064;2023-02-23T01:51:26;97764.66;;;9.16;100.00
18323;BME280;9287;49.456;11.064;2023-02-23T01:53:58;97763.06;;;9.15;100.00
18323;BME280;9287;49.456;11.064;2023-02-23T01:56:29;97762.28;;;9.15;100.00
18323;BME280;9287;49.456;11.064;2023-02-23T01:59:02;97756.13;;;9.18;100.00
18323;BME280;9287;49.456;11.064;2023-02-23T02:01:31;97759.91;;;9.13;100.00
18323;BME280;9287;49.456;11.064;2023-02-23T02:04:01;97763.88;;;9.16;100.00
18323;BME280;9287;49.456;11.064;2023-02-23T02:06:34;97770.44;;;9.15;100.00
18323;BME280;9287;49.456;11.064;2023-02-23T02:09:06;97760.00;;;9.17;100.00
18323;BME280;9287;49.456;11.064;2023-02-23T02:11:36;97767.81;;;9.18;100.00
18323;BME280;9287;49.456;11.064;2023-02-23T02:14:06;97763.16;;;9.19;100.00
18323;BME280;9287;49.456;11.064;2023-02-23T02:23:04;97754.56;;;9.17;100.00
18323;BME280;9287;49.456;11.064;2023-02-23T02:25:56;97755.50;;;9.08;100.00
18323;BME280;9287;49.456;11.064;2023-02-23T02:31:59;97758.91;;;9.05;100.00
18323;BME280;9287;49.456;11.064;2023-02-23T02:37:54;97762.59;;;8.97;100.00
18323;BME280;9287;49.456;11.064;2023-02-23T02:40:30;97752.81;;;8.96;100.00
18323;BME280;9287;49.456;11.064;2023-02-23T02:43:05;97757.13;;;8.97;100.00
18323;BME280;9287;49.456;11.064;2023-02-23T02:45:45;97751.47;;;8.90;100.00
18323;BME280;9287;49.456;11.064;2023-02-23T02:48:22;97749.91;;;8.89;100.00
18323;BME280;9287;49.456;11.064;2023-02-23T02:51:01;97750.34;;;8.91;100.00
18323;BME280;9287;49.456;11.064;2023-02-23T02:53:40;97756.94;;;8.90;100.00
18323;BME280;9287;49.456;11.064;2023-02-23T02:56:13;97750.59;;;8.86;100.00
18323;BME280;9287;49.456;11.064;2023-02-23T02:58:45;97752.66;;;8.77;100.00
18323;BME280;9287;49.456;11.064;2023-02-23T03:01:16;97755.16;;;8.82;100.00
18323;BME280;9287;49.456;11.064;2023-02-23T03:04:18;97756.72;;;8.83;100.00
18323;BME280;9287;49.456;11.064;2023-02-23T03:07:09;97759.03;;;8.81;100.00
18323;BME280;9287;49.456;11.064;2023-02-23T03:10:07;97756.53;;;8.76;100.00
18323;BME280;9287;49.456;11.064;2023-02-23T03:12:59;97764.88;;;8.83;100.00
18323;BME280;9287;49.456;11.064;2023-02-23T03:15:57;97758.22;;;8.81;100.00
18323;BME280;9287;49.456;11.064;2023-02-23T03:19:03;97758.50;;;8.63;100.00
18323;BME280;9287;49.456;11.064;2023-02-23T03:21:53;97764.53;;;8.57;100.00
18323;BME280;9287;49.456;11.064;2023-02-23T03:24:46;97764.75;;;8.64;100.00
18323;BME280;9287;49.456;11.064;2023-02-23T03:27:43;97771.06;;;8.68;100.00
18323;BME280;9287;49.456;11.064;2023-02-23T03:30:40;97765.16;;;8.66;100.00
18323;BME280;9287;49.456;11.064;2023-02-23T03:33:36;97772.66;;;8.69;100.00
18323;BME280;9287;49.456;11.064;2023-02-23T03:36:25;97766.63;;;8.76;100.00
18323;BME280;9287;49.456;11.064;2023-02-23T03:39:19;97775.81;;;8.71;100.00
18323;BME280;9287;49.456;11.064;2023-02-23T03:42:10;97767.41;;;8.76;100.00
18323;BME280;9287;49.456;11.064;2023-02-23T03:45:02;97769.91;;;8.81;100.00
18323;BME280;9287;49.456;11.064;2023-02-23T03:47:49;97775.81;;;8.71;100.00
18323;BME280;9287;49.456;11.064;2023-02-23T03:50:38;97767.41;;;8.76;100.00
18323;BME280;9287;49.456;11.064;2023-02-23T03:53:28;97773.09;;;8.71;100.00
18323;BME280;9287;49.456;11.064;2023-02-23T03:56:17;97768.78;;;8.70;100.00
18323;BME280;9287;49.456;11.064;2023-02-23T03:59:05;97764.03;;;8.67;100.00
18323;BME280;9287;49.456;11.064;2023-02-23T04:01:54;97763.94;;;8.63;100.00
18323;BME280;9287;49.456;11.064;2023-02-23T04:04:41;97769.50;;;8.55;100.00
18323;BME280;9287;49.456;11.064;2023-02-23T04:07:27;97777.69;;;8.55;100.00
18323;BME280;9287;49.456;11.064;2023-02-23T04:10:13;97769.19;;;8.56;100.00
18323;BME280;9287;49.456;11.064;2023-02-23T04:13:02;97776.09;;;8.54;100.00
18323;BME280;9287;49.456;11.064;2023-02-23T04:15:44;97773.41;;;8.42;100.00
18323;BME280;9287;49.456;11.064;2023-02-23T04:18:16;97771.69;;;8.37;100.00
18323;BME280;9287;49.456;11.064;2023-02-23T04:20:44;97777.94;;;8.37;100.00
18323;BME280;9287;49.456;11.064;2023-02-23T04:23:12;97773.41;;;8.42;100.00
18323;BME280;9287;49.456;11.064;2023-02-23T04:25:40;97770.00;;;8.45;100.00
18323;BME280;9287;49.456;11.064;2023-02-23T04:28:07;97784.06;;;8.34;100.00
18323;BME280;9287;49.456;11.064;2023-02-23T04:30:35;97780.19;;;8.35;100.00
18323;BME280;9287;49.456;11.064;2023-02-23T04:33:03;97778.63;;;8.34;100.00
18323;BME280;9287;49.456;11.064;2023-02-23T04:35:32;97779.97;;;8.28;100.00
18323;BME280;9287;49.456;11.064;2023-02-23T04:38:00;97782.91;;;8.23;100.00
18323;BME280;9287;49.456;11.064;2023-02-23T04:40:27;97779.97;;;8.28;100.00
18323;BME280;9287;49.456;11.064;2023-02-23T04:42:55;97782.91;;;8.23;100.00
18323;BME280;9287;49.456;11.064;2023-02-23T04:45:24;97780.66;;;8.25;100.00
18323;BME280;9287;49.456;11.064;2023-02-23T04:47:52;97786.31;;;8.20;100.00
18323;BME280;9287;49.456;11.064;2023-02-23T04:50:19;97789.72;;;8.17;100.00
18323;BME280;9287;49.456;11.064;2023-02-23T04:52:49;97791.97;;;8.15;100.00
18323;BME280;9287;49.456;11.064;2023-02-23T04:55:21;97788.34;;;8.23;100.00
18323;BME280;9287;49.456;11.064;2023-02-23T04:57:49;97794.94;;;8.10;100.00
18323;BME280;9287;49.456;11.064;2023-02-23T05:00:18;97795.63;;;8.07;100.00
18323;BME280;9287;49.456;11.064;2023-02-23T05:02:45;97789.84;;;7.96;100.00
18323;BME280;9287;49.456;11.064;2023-02-23T05:05:16;97786.75;;;7.98;100.00
18323;BME280;9287;49.456;11.064;2023-02-23T05:07:43;97795.63;;;8.07;100.00
18323;BME280;9287;49.456;11.064;2023-02-23T05:10:12;97793.13;;;8.02;100.00
18323;BME280;9287;49.456;11.064;2023-02-23T05:12:40;97788.34;;;7.99;100.00
18323;BME280;9287;49.456;11.064;2023-02-23T05:15:08;97789.72;;;7.93;100.00
18323;BME280;9287;49.456;11.064;2023-02-23T05:17:38;97787.09;;;7.84;100.00
18323;BME280;9287;49.456;11.064;2023-02-23T05:20:08;97792.19;;;7.98;100.00
18323;BME280;9287;49.456;11.064;2023-02-23T05:22:36;97784.97;;;7.90;100.00
18323;BME280;9287;49.456;11.064;2023-02-23T05:25:05;97793.34;;;7.85;100.00
18323;BME280;9287;49.456;11.064;2023-02-23T05:27:35;97793.56;;;7.80;100.00
18323;BME280;9287;49.456;11.064;2023-02-23T05:30:04;97788.13;;;7.80;100.00
18323;BME280;9287;49.456;11.064;2023-02-23T05:32:33;97791.19;;;7.78;100.00
18323;BME280;9287;49.456;11.064;2023-02-23T05:35:01;97795.38;;;7.76;100.00
18323;BME280;9287;49.456;11.064;2023-02-23T05:37:29;97797.38;;;7.66;100.00
18323;BME280;9287;49.456;11.064;2023-02-23T05:39:57;97789.28;;;7.79;100.00
18323;BME280;9287;49.456;11.064;2023-02-23T05:42:24;97792.19;;;7.74;100.00
18323;BME280;9287;49.456;11.064;2023-02-23T05:44:53;97787.78;;;7.81;100.00
18323;BME280;9287;49.456;11.064;2023-02-23T05:47:21;97792.88;;;7.83;100.00
18323;BME280;9287;49.456;11.064;2023-02-23T05:49:49;97791.75;;;7.84;100.00
18323;BME280;9287;49.456;11.064;2023-02-23T05:52:17;97787.69;;;7.90;100.00
18323;BME280;9287;49.456;11.064;2023-02-23T05:54:44;97790.84;;;7.92;100.00
18323;BME280;9287;49.456;11.064;2023-02-23T05:57:19;97787.09;;;7.84;100.00
18323;BME280;9287;49.456;11.064;2023-02-23T06:00:06;97797.66;;;7.86;100.00
18323;BME280;9287;49.456;11.064;2023-02-23T06:02:39;97795.84;;;7.90;100.00
18323;BME280;9287;49.456;11.064;2023-02-23T06:05:08;97788.56;;;7.82;100.00
18323;BME280;9287;49.456;11.064;2023-02-23T06:07:37;97801.69;;;7.80;100.00
18323;BME280;9287;49.456;11.064;2023-02-23T06:10:06;97798.78;;;7.85;100.00
18323;BME280;9287;49.456;11.064;2023-02-23T06:12:34;97801.28;;;7.90;100.00
18323;BME280;9287;49.456;11.064;2023-02-23T06:15:03;97799.91;;;7.72;100.00
18323;BME280;9287;49.456;11.064;2023-02-23T06:17:32;97805.78;;;7.86;100.00
18323;BME280;9287;49.456;11.064;2023-02-23T06:20:00;97806.47;;;7.83;100.00
18323;BME280;9287;49.456;11.064;2023-02-23T06:22:30;97812.16;;;7.90;100.00
18323;BME280;9287;49.456;11.064;2023-02-23T06:24:58;97815.66;;;7.90;100.00
18323;BME280;9287;49.456;11.064;2023-02-23T06:27:28;97812.81;;;7.87;100.00
18323;BME280;9287;49.456;11.064;2023-02-23T06:29:56;97818.72;;;7.89;100.00
18323;BME280;9287;49.456;11.064;2023-02-23T06:32:24;97819.63;;;7.93;100.00
18323;BME280;9287;49.456;11.064;2023-02-23T06:34:54;97825.28;;;7.88;100.00
18323;BME280;9287;49.456;11.064;2023-02-23T06:37:22;97828.34;;;7.86;100.00
18323;BME280;9287;49.456;11.064;2023-02-23T06:39:50;97829.38;;;7.94;100.00
18323;BME280;9287;49.456;11.064;2023-02-23T06:42:19;97831.19;;;8.02;100.00
18323;BME280;9287;49.456;11.064;2023-02-23T06:44:47;97826.19;;;8.04;100.00
18323;BME280;9287;49.456;11.064;2023-02-23T06:47:15;97835.03;;;8.01;100.00
18323;BME280;9287;49.456;11.064;2023-02-23T06:49:43;97828.00;;;8.00;100.00
18323;BME280;9287;49.456;11.064;2023-02-23T06:52:12;97834.59;;;8.11;100.00
18323;BME280;9287;49.456;11.064;2023-02-23T06:54:40;97838.00;;;7.96;100.00
18323;BME280;9287;49.456;11.064;2023-02-23T06:57:09;97839.22;;;7.98;100.00
18323;BME280;9287;49.456;11.064;2023-02-23T06:59:36;97847.84;;;8.00;100.00
18323;BME280;9287;49.456;11.064;2023-02-23T07:02:04;97848.66;;;8.13;100.00
18323;BME280;9287;49.456;11.064;2023-02-23T07:04:32;97853.19;;;8.21;100.00
18323;BME280;9287;49.456;11.064;2023-02-23T07:07:00;97853.84;;;8.18;100.00
18323;BME280;9287;49.456;11.064;2023-02-23T07:09:30;97843.31;;;8.17;100.00
18323;BME280;9287;49.456;11.064;2023-02-23T07:11:58;97849.53;;;8.17;100.00
18323;BME280;9287;49.456;11.064;2023-02-23T07:14:26;97845.03;;;8.21;100.00
18323;BME280;9287;49.456;11.064;2023-02-23T07:16:54;97855.91;;;8.21;100.00
18323;BME280;9287;49.456;11.064;2023-02-23T07:19:22;97860.44;;;8.17;100.00
18323;BME280;9287;49.456;11.064;2023-02-23T07:21:50;97853.88;;;8.30;100.00
18323;BME280;9287;49.456;11.064;2023-02-23T07:24:17;97860.00;;;8.40;100.00
18323;BME280;9287;49.456;11.064;2023-02-23T07:26:47;97857.75;;;8.42;100.00
18323;BME280;9287;49.456;11.064;2023-02-23T07:29:15;97865.44;;;8.52;100.00
18323;BME280;9287;49.456;11.064;2023-02-23T07:31:43;97864.09;;;8.46;100.00
18323;BME280;9287;49.456;11.064;2023-02-23T07:34:10;97861.69;;;8.56;100.00
18323;BME280;9287;49.456;11.064;2023-02-23T07:36:38;97861.38;;;8.58;100.00
18323;BME280;9287;49.456;11.064;2023-02-23T07:39:06;97862.03;;;8.67;100.00
18323;BME280;9287;49.456;11.064;2023-02-23T07:41:34;97865.88;;;8.66;100.00
18323;BME280;9287;49.456;11.064;2023-02-23T07:44:03;97861.81;;;8.60;100.00
18323;BME280;9287;49.456;11.064;2023-02-23T07:46:31;97867.72;;;8.50;100.00
18323;BME280;9287;49.456;11.064;2023-02-23T07:48:58;97864.09;;;8.58;100.00
18323;BME280;9287;49.456;11.064;2023-02-23T07:51:26;97875.44;;;8.48;100.00
18323;BME280;9287;49.456;11.064;2023-02-23T07:53:54;97865.13;;;8.41;100.00
18323;BME280;9287;49.456;11.064;2023-02-23T07:56:22;97863.84;;;8.51;100.00
18323;BME280;9287;49.456;11.064;2023-02-23T07:58:49;97873.59;;;8.52;100.00
18323;BME280;9287;49.456;11.064;2023-02-23T08:01:18;97866.91;;;8.49;100.00
18323;BME280;9287;49.456;11.064;2023-02-23T08:03:47;97871.00;;;8.55;100.00
18323;BME280;9287;49.456;11.064;2023-02-23T08:06:16;97866.38;;;8.44;100.00
18323;BME280;9287;49.456;11.064;2023-02-23T08:08:44;97873.25;;;8.53;100.00
18323;BME280;9287;49.456;11.064;2023-02-23T08:11:12;97869.53;;;8.58;100.00
18323;BME280;9287;49.456;11.064;2023-02-23T08:13:41;97873.84;;;8.47;100.00
18323;BME280;9287;49.456;11.064;2023-02-23T08:16:09;97870.31;;;8.58;100.00
18323;BME280;9287;49.456;11.064;2023-02-23T08:18:39;97876.31;;;8.76;100.00
18323;BME280;9287;49.456;11.064;2023-02-23T08:21:07;97872.56;;;8.81;100.00
18323;BME280;9287;49.456;11.064;2023-02-23T08:23:34;97880.19;;;8.38;100.00
18323;BME280;9287;49.456;11.064;2023-02-23T08:26:02;97874.84;;;8.54;100.00
18323;BME280;9287;49.456;11.064;2023-02-23T08:28:30;97880.28;;;8.66;100.00
18323;BME280;9287;49.456;11.064;2023-02-23T08:30:58;97869.97;;;8.72;100.00
18323;BME280;9287;49.456;11.064;2023-02-23T08:33:26;97871.78;;;8.80;100.00
18323;BME280;9287;49.456;11.064;2023-02-23T08:35:57;97879.22;;;8.95;100.00
18323;BME280;9287;49.456;11.064;2023-02-23T08:38:28;97864.47;;;8.96;100.00
18323;BME280;9287;49.456;11.064;2023-02-23T08:40:58;97868.13;;;8.88;100.00
18323;BME280;9287;49.456;11.064;2023-02-23T08:43:26;97879.44;;;9.02;100.00
18323;BME280;9287;49.456;11.064;2023-02-23T08:45:54;97879.53;;;9.06;100.00
18323;BME280;9287;49.456;11.064;2023-02-23T08:48:22;97880.28;;;9.19;100.00
18323;BME280;9287;49.456;11.064;2023-02-23T08:50:54;97881.63;;;9.25;100.00
18323;BME280;9287;49.456;11.064;2023-02-23T08:53:24;97876.34;;;9.44;100.00
18323;BME280;9287;49.456;11.064;2023-02-23T08:55:56;97886.78;;;9.42;100.00
18323;BME280;9287;49.456;11.064;2023-02-23T08:58:24;97880.22;;;9.43;100.00
18323;BME280;9287;49.456;11.064;2023-02-23T09:00:52;97888.50;;;9.47;100.00
18323;BME280;9287;49.456;11.064;2023-02-23T09:03:19;97884.00;;;9.54;100.00
18323;BME280;9287;49.456;11.064;2023-02-23T09:05:47;97882.94;;;9.43;100.00
18323;BME280;9287;49.456;11.064;2023-02-23T09:08:15;97885.16;;;9.53;100.00
18323;BME280;9287;49.456;11.064;2023-02-23T09:10:44;97895.81;;;9.58;100.00
18323;BME280;9287;49.456;11.064;2023-02-23T09:13:12;97889.47;;;9.54;100.00
18323;BME280;9287;49.456;11.064;2023-02-23T09:15:41;97883.66;;;9.56;100.00
18323;BME280;9287;49.456;11.064;2023-02-23T09:18:10;97890.25;;;9.55;100.00
18323;BME280;9287;49.456;11.064;2023-02-23T09:20:41;97887.41;;;9.63;100.00
18323;BME280;9287;49.456;11.064;2023-02-23T09:23:09;97892.84;;;9.63;100.00
18323;BME280;9287;49.456;11.064;2023-02-23T09:25:40;97890.72;;;9.57;100.00
18323;BME280;9287;49.456;11.064;2023-02-23T09:28:12;97890.19;;;9.51;100.00
18323;BME280;9287;49.456;11.064;2023-02-23T09:30:41;97890.88;;;9.48;100.00
18323;BME280;9287;49.456;11.064;2023-02-23T09:33:11;97898.38;;;9.39;100.00
18323;BME280;9287;49.456;11.064;2023-02-23T09:35:39;97888.38;;;9.43;100.00
18323;BME280;9287;49.456;11.064;2023-02-23T09:38:07;97890.88;;;9.48;100.00
18323;BME280;9287;49.456;11.064;2023-02-23T09:40:43;97894.19;;;9.41;100.00
18323;BME280;9287;49.456;11.064;2023-02-23T09:43:16;97888.38;;;9.43;100.00
18323;BME280;9287;49.456;11.064;2023-02-23T09:45:49;97893.16;;;9.46;100.00
18323;BME280;9287;49.456;11.064;2023-02-23T09:48:20;97891.63;;;9.33;100.00
18323;BME280;9287;49.456;11.064;2023-02-23T09:50:51;97895.63;;;9.51;100.00
18323;BME280;9287;49.456;11.064;2023-02-23T09:53:26;97893.81;;;9.71;100.00
18323;BME280;9287;49.456;11.064;2023-02-23T09:55:59;97887.97;;;9.85;100.00
18323;BME280;9287;49.456;11.064;2023-02-23T09:58:30;97886.91;;;10.05;100.00
18323;BME280;9287;49.456;11.064;2023-02-23T10:01:16;97893.97;;;10.06;100.00
18323;BME280;9287;49.456;11.064;2023-02-23T10:03:52;97886.41;;;10.15;100.00
18323;BME280;9287;49.456;11.064;2023-02-23T10:06:22;97892.94;;;10.26;100.00
18323;BME280;9287;49.456;11.064;2023-02-23T10:08:59;97888.00;;;10.48;100.00
18323;BME280;9287;49.456;11.064;2023-02-23T10:11:34;97895.25;;;10.56;100.00
18323;BME280;9287;49.456;11.064;2023-02-23T10:14:19;97889.59;;;10.49;100.00
18323;BME280;9287;49.456;11.064;2023-02-23T10:17:02;97888.53;;;10.53;100.00
18323;BME280;9287;49.456;11.064;2023-02-23T10:19:40;97889.97;;;10.31;100.00
18323;BME280;9287;49.456;11.064;2023-02-23T10:22:12;97890.75;;;10.48;100.00
18323;BME280;9287;49.456;11.064;2023-02-23T10:24:44;97896.38;;;10.55;100.00
18323;BME280;9287;49.456;11.064;2023-02-23T10:27:16;97889.59;;;10.49;100.00
18323;BME280;9287;49.456;11.064;2023-02-23T10:29:48;97879.91;;;10.67;100.00
18323;BME280;9287;49.456;11.064;2023-02-23T10:32:19;97887.09;;;10.75;100.00
18323;BME280;9287;49.456;11.064;2023-02-23T10:34:52;97896.97;;;10.64;100.00
18323;BME280;9287;49.456;11.064;2023-02-23T10:37:23;97882.34;;;10.72;100.00
18323;BME280;9287;49.456;11.064;2023-02-23T10:39:52;97894.13;;;10.76;100.00
18323;BME280;9287;49.456;11.064;2023-02-23T10:42:22;97887.81;;;10.72;100.00
18323;BME280;9287;49.456;11.064;2023-02-23T10:44:56;97893.00;;;10.77;100.00
18323;BME280;9287;49.456;11.064;2023-02-23T10:47:26;97891.84;;;10.78;100.00
18323;BME280;9287;49.456;11.064;2023-02-23T10:49:56;97895.41;;;10.63;100.00
18323;BME280;9287;49.456;11.064;2023-02-23T10:52:28;97896.44;;;10.74;100.00
18323;BME280;9287;49.456;11.064;2023-02-23T10:54:58;97901.75;;;10.67;100.00
18323;BME280;9287;49.456;11.064;2023-02-23T10:57:30;97901.03;;;10.70;100.00
18323;BME280;9287;49.456;11.064;2023-02-23T11:00:06;97901.88;;;10.74;100.00
18323;BME280;9287;49.456;11.064;2023-02-23T11:02:35;97908.00;;;10.67;100.00
18323;BME280;9287;49.456;11.064;2023-02-23T11:05:04;97892.00;;;10.85;100.00
18323;BME280;9287;49.456;11.064;2023-02-23T11:07:33;97901.81;;;10.70;100.00
18323;BME280;9287;49.456;11.064;2023-02-23T11:10:23;97898.75;;;10.72;100.00
18323;BME280;9287;49.456;11.064;2023-02-23T11:12:51;97902.94;;;10.85;100.00
18323;BME280;9287;49.456;11.064;2023-02-23T11:15:30;97897.41;;;10.66;100.00
18323;BME280;9287;49.456;11.064;2023-02-23T11:18:19;97897.41;;;10.66;100.00
18323;BME280;9287;49.456;11.064;2023-02-23T11:20:48;97895.94;;;10.68;100.00
18323;BME280;9287;49.456;11.064;2023-02-23T11:23:21;97892.41;;;10.68;100.00
18323;BME280;9287;49.456;11.064;2023-02-23T11:25:51;97885.88;;;10.57;100.00
18323;BME280;9287;49.456;11.064;2023-02-23T11:28:26;97880.28;;;10.50;100.00
18323;BME280;9287;49.456;11.064;2023-02-23T11:30:59;97877.66;;;10.37;100.00
18323;BME280;9287;49.456;11.064;2023-02-23T11:33:31;97877.44;;;10.62;100.00
18323;BME280;9287;49.456;11.064;2023-02-23T11:36:14;97877.34;;;10.58;100.00
18323;BME280;9287;49.456;11.064;2023-02-23T11:38:44;97867.66;;;10.61;100.00
18323;BME280;9287;49.456;11.064;2023-02-23T11:41:19;97873.91;;;10.61;100.00
18323;BME280;9287;49.456;11.064;2023-02-23T11:43:48;97867.56;;;10.73;100.00
18323;BME280;9287;49.456;11.064;2023-02-23T11:46:19;97865.09;;;10.68;100.00
18323;BME280;9287;49.456;11.064;2023-02-23T11:48:50;97864.97;;;10.80;100.00
18323;BME280;9287;49.456;11.064;2023-02-23T11:51:25;97866.00;;;10.91;100.00
18323;BME280;9287;49.456;11.064;2023-02-23T11:53:54;97863.13;;;10.84;100.00
18323;BME280;9287;49.456;11.064;2023-02-23T11:56:23;97860.50;;;10.72;100.00
18323;BME280;9287;49.456;11.064;2023-02-23T11:58:53;97862.09;;;10.73;100.00
18323;BME280;9287;49.456;11.064;2023-02-23T12:01:34;97854.00;;;10.96;100.00
18323;BME280;9287;49.456;11.064;2023-02-23T12:04:05;97859.84;;;10.78;100.00
18323;BME280;9287;49.456;11.064;2023-02-23T12:06:35;97856.69;;;10.76;100.00
18323;BME280;9287;49.456;11.064;2023-02-23T12:09:08;97856.78;;;10.80;100.00
18323;BME280;9287;49.456;11.064;2023-02-23T12:11:48;97859.31;;;10.89;100.00
18323;BME280;9287;49.456;11.064;2023-02-23T12:14:25;97855.44;;;10.90;100.00
18323;BME280;9287;49.456;11.064;2023-02-23T12:17:01;97861.84;;;10.97;100.00
18323;BME280;9287;49.456;11.064;2023-02-23T12:19:34;97850.91;;;10.97;100.00
18323;BME280;9287;49.456;11.064;2023-02-23T12:22:06;97853.19;;;10.95;100.00
18323;BME280;9287;49.456;11.064;2023-02-23T12:24:42;97862.41;;;10.87;100.00
18323;BME280;9287;49.456;11.064;2023-02-23T12:27:14;97857.53;;;10.96;100.00
18323;BME280;9287;49.456;11.064;2023-02-23T12:29:57;97853.06;;;10.88;100.00
18323;BME280;9287;49.456;11.064;2023-02-23T12:32:38;97856.22;;;10.90;100.00
18323;BME280;9287;49.456;11.064;2023-02-23T12:35:15;97846.16;;;10.94;100.00
18323;BME280;9287;49.456;11.064;2023-02-23T12:37:46;97847.75;;;10.95;100.00
18323;BME280;9287;49.456;11.064;2023-02-23T12:40:16;97843.84;;;10.96;100.00
18323;BME280;9287;49.456;11.064;2023-02-23T12:42:53;97843.38;;;11.10;100.00
18323;BME280;9287;49.456;11.064;2023-02-23T12:45:28;97842.00;;;11.20;100.00
18323;BME280;9287;49.456;11.064;2023-02-23T12:48:07;97838.25;;;11.28;100.00
18323;BME280;9287;49.456;11.064;2023-02-23T12:50:41;97835.41;;;11.40;100.00
18323;BME280;9287;49.456;11.064;2023-02-23T12:53:18;97832.34;;;11.45;100.00
18323;BME280;9287;49.456;11.064;2023-02-23T12:56:03;97828.63;;;11.53;100.00
18323;BME280;9287;49.456;11.064;2023-02-23T12:58:39;97830.91;;;11.51;100.00
18323;BME280;9287;49.456;11.064;2023-02-23T13:01:09;97828.63;;;11.53;100.00
18323;BME280;9287;49.456;11.064;2023-02-23T13:06:53;97819.97;;;11.51;100.00
18323;BME280;9287;49.456;11.064;2023-02-23T13:09:34;97820.69;;;11.48;100.00
18323;BME280;9287;49.456;11.064;2023-02-23T13:12:14;97812.94;;;11.50;100.00
18323;BME280;9287;49.456;11.064;2023-02-23T13:14:49;97812.22;;;11.53;100.00
18323;BME280;9287;49.456;11.064;2023-02-23T13:17:32;97803.03;;;11.65;100.00
18323;BME280;9287;49.456;11.064;2023-02-23T13:20:10;97809.44;;;11.72;100.00
18323;BME280;9287;49.456;11.064;2023-02-23T13:22:44;97808.66;;;11.72;100.00
18323;BME280;9287;49.456;11.064;2023-02-23T13:25:26;97813.25;;;11.68;100.00
18323;BME280;9287;49.456;11.064;2023-02-23T13:27:58;97813.19;;;11.64;100.00
18323;BME280;9287;49.456;11.064;2023-02-23T13:30:28;97808.44;;;11.61;100.00
18323;BME280;9287;49.456;11.064;2023-02-23T13:32:58;97806.66;;;11.49;100.00
18323;BME280;9287;49.456;11.064;2023-02-23T13:35:32;97806.31;;;11.51;100.00
18323;BME280;9287;49.456;11.064;2023-02-23T13:38:10;97797.91;;;11.63;100.00
18323;BME280;9287;49.456;11.064;2023-02-23T13:40:45;97808.44;;;11.61;100.00
18323;BME280;9287;49.456;11.064;2023-02-23T13:43:21;97804.69;;;11.69;100.00